Time;durP1;ratioP1;P1;durP2;ratioP2;P2;SDS_P1;SDS_P2;PMS_P1;PMS_P2;Temp;Humidity;BMP_temperature;BMP_pressure;BME280_temperature;BME280_humidity;BME280_pressure;Samples;Min_cycle;Max_cycle;Signal;HPM_P1;HPM_P2
2024/03/05 00:02:24;;;;;;;;;;;;;;;20.24;36.06;100411.84;102725;1294;63409;-82
2024/03/05 00:04:50;;;;;;;;;;;;;;;20.24;36.09;100412.54;102627;1292;62263;-80
2024/03/05 00:07:16;;;;;;;;;;;;;;;20.24;36.00;100415.03;102830;1291;62192;-78
2024/03/05 00:09:42;;;;;;;;;;;;;;;20.24;36.04;100412.73;102638;1291;63427;-80
2024/03/05 00:12:08;;;;;;;;;;;;;;;20.24;36.03;100409.14;102781;1291;62864;-79
2024/03/05 00:14:34;;;;;;;;;;;;;;;20.24;35.89;100406.98;102811;1291;62202;-80
2024/03/05 00:16:59;;;;;;;;;;;;;;;20.25;36.07;100407.14;102662;1297;62118;-80
2024/03/05 00:19:25;;;;;;;;;;;;;;;20.25;35.97;100403.56;102637;1292;63575;-81
2024/03/05 00:21:51;;;;;;;;;;;;;;;20.25;35.94;100401.23;102908;1296;62299;-80
2024/03/05 00:24:17;;;;;;;;;;;;;;;20.25;35.92;100399.63;102635;1291;62157;-81
2024/03/05 00:26:42;;;;;;;;;;;;;;;20.25;35.98;100402.80;102726;1291;62223;-81
2024/03/05 00:29:08;;;;;;;;;;;;;;;20.25;36.06;100404.23;102826;1294;72535;-80
2024/03/05 00:31:34;;;;;;;;;;;;;;;20.25;35.98;100397.09;102648;1291;63235;-81
2024/03/05 00:33:59;;;;;;;;;;;;;;;20.26;36.04;100394.20;102731;1291;63233;-79
2024/03/05 00:36:25;;;;;;;;;;;;;;;20.26;35.84;100399.38;102635;1291;62202;-80
2024/03/05 00:38:51;;;;;;;;;;;;;;;20.26;36.02;100399.38;102762;1294;62139;-79
2024/03/05 00:41:18;;;;;;;;;;;;;;;20.26;35.92;100396.53;102647;1296;72547;-81
2024/03/05 00:43:44;;;;;;;;;;;;;;;20.26;35.85;100395.60;102702;1294;76275;-82
2024/03/05 00:46:10;;;;;;;;;;;;;;;20.26;35.92;100395.83;102736;1296;62237;-79
2024/03/05 00:48:36;;;;;;;;;;;;;;;20.27;35.98;100395.20;102750;1291;62212;-82
2024/03/05 00:51:02;;;;;;;;;;;;;;;20.26;36.01;100390.05;102647;1296;62092;-81
2024/03/05 00:53:27;;;;;;;;;;;;;;;20.27;35.86;100388.41;102958;1292;62320;-78
2024/03/05 00:55:53;;;;;;;;;;;;;;;20.28;36.03;100387.30;102715;1291;62114;-81
2024/03/05 00:58:20;;;;;;;;;;;;;;;20.27;35.83;100387.33;102605;1296;62120;-81
2024/03/05 01:00:47;;;;;;;;;;;;;;;20.28;35.89;100386.04;102714;1296;62229;-81
2024/03/05 01:03:12;;;;;;;;;;;;;;;20.28;35.95;100387.28;102661;1296;63468;-79
2024/03/05 01:05:38;;;;;;;;;;;;;;;20.28;35.91;100389.42;102679;1291;63492;-80
2024/03/05 01:08:03;;;;;;;;;;;;;;;20.27;35.84;100380.35;102746;1293;63381;-80
2024/03/05 01:10:29;;;;;;;;;;;;;;;20.28;35.80;100379.58;102735;1292;62182;-80
2024/03/05 01:12:56;;;;;;;;;;;;;;;20.28;35.89;100382.80;102755;1292;62267;-82
2024/03/05 01:15:23;;;;;;;;;;;;;;;20.29;35.96;100380.60;102667;1296;72500;-81
2024/03/05 01:17:48;;;;;;;;;;;;;;;20.29;35.81;100382.58;102786;1293;62209;-80
2024/03/05 01:20:18;;;;;;;;;;;;;;;20.29;35.89;100382.23;102651;1297;63405;-80
2024/03/05 01:22:46;;;;;;;;;;;;;;;20.29;35.96;100380.25;102696;1291;63965;-81
2024/03/05 01:25:11;;;;;;;;;;;;;;;20.29;35.85;100384.16;102705;1293;73186;-80
2024/03/05 01:27:38;;;;;;;;;;;;;;;20.29;35.92;100381.67;102616;1292;62327;-80
2024/03/05 01:30:11;;;;;;;;;;;;;;;20.29;35.69;100379.17;102767;1294;63382;-80
2024/03/05 01:32:46;;;;;;;;;;;;;;;20.29;35.88;100375.21;102798;1294;62187;-80
2024/03/05 01:35:12;;;;;;;;;;;;;;;20.30;35.87;100375.91;102540;1291;71472;-80
2024/03/05 01:37:38;;;;;;;;;;;;;;;20.29;35.87;100376.10;102700;1294;62282;-80
2024/03/05 01:40:04;;;;;;;;;;;;;;;20.29;35.87;100376.27;102639;1297;63412;-81
2024/03/05 01:42:30;;;;;;;;;;;;;;;20.30;35.77;100380.33;102691;1291;62220;-80
2024/03/05 01:44:56;;;;;;;;;;;;;;;20.30;35.95;100378.17;102575;1293;63408;-79
2024/03/05 01:47:21;;;;;;;;;;;;;;;20.30;35.85;100377.08;102643;1291;62205;-81
2024/03/05 01:49:47;;;;;;;;;;;;;;;20.31;35.80;100371.85;102770;1295;62226;-79
2024/03/05 01:52:16;;;;;;;;;;;;;;;20.31;35.76;100373.14;102770;1291;62131;-81
2024/03/05 01:54:42;;;;;;;;;;;;;;;20.31;35.77;100375.44;102715;1291;62190;-79
2024/03/05 01:57:07;;;;;;;;;;;;;;;20.31;35.83;100374.17;102655;1296;62287;-82
2024/03/05 01:59:33;;;;;;;;;;;;;;;20.31;35.79;100373.79;102714;1294;62376;-79
2024/03/05 02:01:58;;;;;;;;;;;;;;;20.32;35.77;100371.98;102703;1291;62208;-79
2024/03/05 02:04:25;;;;;;;;;;;;;;;20.32;35.83;100373.40;102926;1296;62151;-81
2024/03/05 02:06:51;;;;;;;;;;;;;;;20.32;35.81;100371.61;102632;1296;62225;-81
2024/03/05 02:09:20;;;;;;;;;;;;;;;20.33;35.70;100371.55;102630;1293;63222;-80
2024/03/05 02:11:45;;;;;;;;;;;;;;;20.32;35.73;100368.16;102701;1297;75353;-81
2024/03/05 02:14:11;;;;;;;;;;;;;;;20.33;35.75;100367.77;102728;1291;62186;-80
2024/03/05 02:16:37;;;;;;;;;;;;;;;20.33;35.81;100368.65;102629;1297;62289;-81
2024/03/05 02:19:05;;;;;;;;;;;;;;;20.33;35.80;100364.20;102900;1294;62180;-81
2024/03/05 02:21:31;;;;;;;;;;;;;;;20.33;35.76;100361.52;102610;1296;62184;-80
2024/03/05 02:23:57;;;;;;;;;;;;;;;20.34;35.84;100363.62;102710;1294;63472;-80
2024/03/05 02:26:24;;;;;;;;;;;;;;;20.33;35.65;100361.12;102873;1291;62217;-80
2024/03/05 02:28:49;;;;;;;;;;;;;;;20.34;35.68;100362.36;102679;1296;62137;-80
2024/03/05 02:31:15;;;;;;;;;;;;;;;20.34;35.72;100363.22;102661;1291;62299;-80
2024/03/05 02:33:42;;;;;;;;;;;;;;;20.34;35.77;100363.59;102680;1297;62751;-80
2024/03/05 02:36:08;;;;;;;;;;;;;;;20.34;35.64;100366.80;102660;1296;62251;-79
2024/03/05 02:38:34;;;;;;;;;;;;;;;20.34;35.75;100367.69;102688;1297;63465;-81
2024/03/05 02:41:00;;;;;;;;;;;;;;;20.34;35.63;100368.38;102688;1297;62128;-78
2024/03/05 02:43:25;;;;;;;;;;;;;;;20.34;35.65;100365.35;102645;1299;77150;-80
2024/03/05 02:45:51;;;;;;;;;;;;;;;20.35;35.70;100367.66;103043;1293;63557;-80
2024/03/05 02:48:16;;;;;;;;;;;;;;;20.35;35.78;100372.26;102630;1296;62183;-80
2024/03/05 02:50:43;;;;;;;;;;;;;;;20.35;35.67;100374.73;102703;1297;62195;-79
2024/03/05 02:53:08;;;;;;;;;;;;;;;20.36;35.79;100376.66;102849;1297;62450;-80
2024/03/05 02:55:37;;;;;;;;;;;;;;;20.35;35.66;100379.40;102721;1294;62227;-80
2024/03/05 02:58:06;;;;;;;;;;;;;;;20.36;35.83;100376.52;102782;1293;62227;-80
2024/03/05 03:00:33;;;;;;;;;;;;;;;20.36;35.60;100373.44;102857;1296;62114;-80
2024/03/05 03:02:58;;;;;;;;;;;;;;;20.37;35.63;100374.45;102627;1297;62142;-79
2024/03/05 03:05:24;;;;;;;;;;;;;;;20.36;35.66;100373.77;102696;1295;62246;-80
2024/03/05 03:07:50;;;;;;;;;;;;;;;20.37;35.61;100377.83;102713;1291;62291;-80
2024/03/05 03:10:16;;;;;;;;;;;;;;;20.37;35.63;100377.61;102680;1296;62128;-79
2024/03/05 03:12:42;;;;;;;;;;;;;;;20.37;35.81;100374.96;102670;1293;62180;-80
2024/03/05 03:15:08;;;;;;;;;;;;;;;20.37;35.71;100370.84;102794;1297;62543;-80
2024/03/05 03:17:34;;;;;;;;;;;;;;;20.38;35.70;100372.27;102636;1291;76037;-79
2024/03/05 03:20:01;;;;;;;;;;;;;;;20.37;35.65;100375.11;102841;1297;62232;-78
2024/03/05 03:22:27;;;;;;;;;;;;;;;20.38;35.75;100375.45;102639;1292;62189;-81
2024/03/05 03:24:53;;;;;;;;;;;;;;;20.38;35.63;100372.39;102684;1294;62144;-80
2024/03/05 03:27:19;;;;;;;;;;;;;;;20.38;35.67;100371.52;102801;1295;62223;-80
2024/03/05 03:29:46;;;;;;;;;;;;;;;20.38;35.55;100368.83;102738;1297;63397;-80
2024/03/05 03:32:11;;;;;;;;;;;;;;;20.38;35.62;100370.77;102636;1297;62272;-80
2024/03/05 03:34:40;;;;;;;;;;;;;;;20.38;35.67;100371.99;102756;1295;62139;-81
2024/03/05 03:37:06;;;;;;;;;;;;;;;20.39;35.71;100372.54;102676;1291;62189;-79
2024/03/05 03:39:32;;;;;;;;;;;;;;;20.39;35.67;100379.11;102714;1296;62547;-80
2024/03/05 03:41:58;;;;;;;;;;;;;;;20.39;35.59;100374.48;102882;1295;63352;-80
2024/03/05 03:44:24;;;;;;;;;;;;;;;20.39;35.52;100373.03;102648;1297;63494;-79
2024/03/05 03:46:50;;;;;;;;;;;;;;;20.39;35.59;100371.59;102658;1297;62219;-79
2024/03/05 03:49:19;;;;;;;;;;;;;;;20.40;35.60;100369.59;102774;1298;62163;-80
2024/03/05 03:51:44;;;;;;;;;;;;;;;20.40;35.63;100372.41;102766;1297;62172;-81
2024/03/05 03:54:10;;;;;;;;;;;;;;;20.40;35.74;100368.11;102623;1291;63494;-79
2024/03/05 03:56:36;;;;;;;;;;;;;;;20.40;35.58;100368.46;102786;1298;62131;-79
2024/03/05 03:59:03;;;;;;;;;;;;;;;20.41;35.63;100367.73;102714;1295;63447;-78
2024/03/05 04:01:31;;;;;;;;;;;;;;;20.40;35.72;100369.02;102619;1295;63501;-79
2024/03/05 04:03:58;;;;;;;;;;;;;;;20.41;35.55;100370.91;102753;1303;62199;-79
2024/03/05 04:06:24;;;;;;;;;;;;;;;20.41;35.57;100367.89;102719;1297;62231;-79
2024/03/05 04:08:51;;;;;;;;;;;;;;;20.41;35.68;100368.74;102726;1293;62230;-79
2024/03/05 04:11:17;;;;;;;;;;;;;;;20.41;35.63;100370.17;102267;1295;672885;-83
2024/03/05 04:13:43;;;;;;;;;;;;;;;20.41;35.59;100368.59;102700;1291;62217;-80
2024/03/05 04:16:09;;;;;;;;;;;;;;;20.42;35.68;100366.38;102632;1305;62236;-78
2024/03/05 04:18:35;;;;;;;;;;;;;;;20.42;35.56;100367.29;102771;1295;63686;-79
2024/03/05 04:21:01;;;;;;;;;;;;;;;20.42;35.62;100373.52;102669;1296;62296;-80
2024/03/05 04:23:27;;;;;;;;;;;;;;;20.42;35.69;100375.70;102745;1297;62232;-82
2024/03/05 04:25:58;;;;;;;;;;;;;;;20.42;35.57;100379.25;102695;1297;74030;-81
2024/03/05 04:28:24;;;;;;;;;;;;;;;20.41;35.57;100379.46;102757;1293;75286;-80
2024/03/05 04:30:52;;;;;;;;;;;;;;;20.40;35.57;100377.76;102712;1297;62212;-81
2024/03/05 04:33:20;;;;;;;;;;;;;;;20.39;35.52;100381.41;102794;1292;62142;-81
2024/03/05 04:35:46;;;;;;;;;;;;;;;20.39;35.58;100378.96;102734;1297;71288;-81
2024/03/05 04:38:12;;;;;;;;;;;;;;;20.39;35.66;100380.34;103122;1296;62194;-81
2024/03/05 04:40:37;;;;;;;;;;;;;;;20.39;35.61;100382.83;102652;1297;62332;-83
2024/03/05 04:43:03;;;;;;;;;;;;;;;20.40;35.67;100377.23;102695;1292;62109;-81
2024/03/05 04:45:29;;;;;;;;;;;;;;;20.40;35.64;100375.08;102798;1292;62224;-81
2024/03/05 04:47:54;;;;;;;;;;;;;;;20.41;35.59;100371.98;102604;1293;72516;-81
2024/03/05 04:50:20;;;;;;;;;;;;;;;20.41;35.61;100376.28;102682;1304;62231;-81
2024/03/05 04:52:46;;;;;;;;;;;;;;;20.41;35.66;100373.21;102794;1291;62557;-83
2024/03/05 04:55:12;;;;;;;;;;;;;;;20.41;35.64;100374.98;102655;1297;63474;-81
2024/03/05 04:57:38;;;;;;;;;;;;;;;20.41;35.56;100376.46;102640;1295;62191;-82
2024/03/05 05:00:19;;;;;;;;;;;;;;;20.40;35.57;100377.61;102689;1304;62356;-81
2024/03/05 05:02:51;;;;;;;;;;;;;;;20.39;35.63;100379.29;102694;1293;62105;-81
2024/03/05 05:05:17;;;;;;;;;;;;;;;20.38;35.54;100377.92;102878;1291;62209;-81
2024/03/05 05:07:43;;;;;;;;;;;;;;;20.39;35.69;100381.65;102625;1296;62269;-82
2024/03/05 05:10:09;;;;;;;;;;;;;;;20.39;35.63;100385.90;102718;1296;62304;-81
2024/03/05 05:12:37;;;;;;;;;;;;;;;20.40;35.43;100384.05;102847;1291;63394;-81
2024/03/05 05:15:03;;;;;;;;;;;;;;;20.40;35.44;100390.30;102649;1291;62192;-82
2024/03/05 05:17:28;;;;;;;;;;;;;;;20.40;35.44;100388.14;102720;1297;63328;-82
2024/03/05 05:19:54;;;;;;;;;;;;;;;20.40;35.51;100388.51;102708;1296;62241;-81
2024/03/05 05:22:20;;;;;;;;;;;;;;;20.40;35.40;100387.65;102661;1292;62277;-82
2024/03/05 05:24:46;;;;;;;;;;;;;;;20.40;35.48;100389.63;102670;1297;63493;-81
2024/03/05 05:27:12;;;;;;;;;;;;;;;20.39;35.36;100388.92;102709;1296;62145;-81
2024/03/05 05:29:38;;;;;;;;;;;;;;;20.39;35.41;100386.23;102667;1296;73338;-82
2024/03/05 05:32:06;;;;;;;;;;;;;;;20.39;35.46;100390.73;102664;1291;62346;-81
2024/03/05 05:34:32;;;;;;;;;;;;;;;20.37;35.37;100390.85;103091;1296;62233;-81
2024/03/05 05:36:58;;;;;;;;;;;;;;;20.34;35.46;100395.03;102639;1294;62319;-79
2024/03/05 05:39:24;;;;;;;;;;;;;;;20.32;35.37;100393.42;102844;1297;63564;-79
2024/03/05 05:41:51;;;;;;;;;;;;;;;20.31;35.39;100391.73;102794;1291;63351;-80
2024/03/05 05:44:16;;;;;;;;;;;;;;;20.29;35.31;100400.27;102910;1291;62169;-80
2024/03/05 05:46:42;;;;;;;;;;;;;;;20.25;35.34;100397.85;103135;1296;62194;-80
2024/03/05 05:49:07;;;;;;;;;;;;;;;20.14;35.37;100400.95;103364;1291;62170;-80
2024/03/05 05:51:33;;;;;;;;;;;;;;;20.10;35.25;100401.77;103173;1296;63377;-79
2024/03/05 05:54:00;;;;;;;;;;;;;;;20.06;35.34;100403.71;103358;1291;62295;-79
2024/03/05 05:56:26;;;;;;;;;;;;;;;20.01;35.35;100406.91;104116;1289;62131;-80
2024/03/05 05:58:51;;;;;;;;;;;;;;;19.90;35.32;100410.22;103988;1289;62216;-81
2024/03/05 06:01:18;;;;;;;;;;;;;;;19.85;35.37;100409.14;104623;1291;62061;-79
2024/03/05 06:03:46;;;;;;;;;;;;;;;19.82;35.57;100407.58;104975;1296;61596;-81
2024/03/05 06:06:13;;;;;;;;;;;;;;;19.75;35.72;100409.29;104635;1289;62148;-80
2024/03/05 06:08:39;;;;;;;;;;;;;;;19.73;35.61;100412.48;104474;1291;62110;-80
2024/03/05 06:11:06;;;;;;;;;;;;;;;19.73;35.63;100419.39;103953;1293;63410;-80
2024/03/05 06:13:38;;;;;;;;;;;;;;;19.74;35.63;100422.91;104207;1291;75429;-81
2024/03/05 06:16:07;;;;;;;;;;;;;;;19.77;35.67;100423.46;103872;1289;62184;-82
2024/03/05 06:18:33;;;;;;;;;;;;;;;19.80;35.65;100429.16;104426;1295;62146;-81
2024/03/05 06:20:59;;;;;;;;;;;;;;;19.82;35.82;100433.08;104242;1297;62212;-81
2024/03/05 06:23:24;;;;;;;;;;;;;;;19.85;35.47;100430.38;104310;1291;62216;-81
2024/03/05 06:25:50;;;;;;;;;;;;;;;19.88;35.62;100426.09;104387;1292;63091;-79
2024/03/05 06:28:15;;;;;;;;;;;;;;;19.90;35.64;100428.56;104472;1291;62078;-80
2024/03/05 06:30:45;;;;;;;;;;;;;;;19.93;35.67;100430.92;104656;1289;63232;-80
2024/03/05 06:33:12;;;;;;;;;;;;;;;19.95;35.52;100434.71;104422;1291;72448;-80
2024/03/05 06:35:38;;;;;;;;;;;;;;;19.97;35.57;100438.52;104609;1288;75269;-81
2024/03/05 06:38:08;;;;;;;;;;;;;;;19.99;35.57;100435.70;106017;1289;60009;-81
2024/03/05 06:40:36;;;;;;;;;;;;;;;20.00;35.42;100436.13;106104;1290;60065;-81
2024/03/05 06:43:05;;;;;;;;;;;;;;;20.01;35.53;100435.47;105966;1289;73467;-80
2024/03/05 06:45:34;;;;;;;;;;;;;;;20.03;35.61;100432.86;105987;1288;76211;-80
2024/03/05 06:48:01;;;;;;;;;;;;;;;20.05;35.69;100433.98;106168;1288;60051;-80
2024/03/05 06:58:50;;;;;;;;;;;;;;;19.95;35.67;100451.81;104060;1289;62063;-79
2024/03/05 07:01:17;;;;;;;;;;;;;;;19.88;35.95;100451.59;104159;1291;64558;-79
2024/03/05 07:03:42;;;;;;;;;;;;;;;19.88;36.12;100451.47;104741;1288;62202;-80
2024/03/05 07:06:09;;;;;;;;;;;;;;;19.88;36.15;100449.30;104062;1290;62229;-80
2024/03/05 07:08:41;;;;;;;;;;;;;;;19.86;36.11;100451.88;104463;1289;62236;-81
2024/03/05 07:11:08;;;;;;;;;;;;;;;19.85;36.19;100452.73;103745;1294;62170;-80
2024/03/05 07:13:34;;;;;;;;;;;;;;;19.82;36.23;100451.16;103747;1291;73480;-80
2024/03/05 07:16:00;;;;;;;;;;;;;;;19.79;36.07;100454.16;104119;1294;76002;-79
2024/03/05 07:18:26;;;;;;;;;;;;;;;19.77;36.16;100455.22;104158;1289;62193;-80
2024/03/05 07:20:52;;;;;;;;;;;;;;;19.76;36.06;100457.28;104087;1289;62177;-81
2024/03/05 07:23:20;;;;;;;;;;;;;;;19.71;36.01;100463.15;104460;1291;62185;-81
2024/03/05 07:25:45;;;;;;;;;;;;;;;19.68;36.07;100465.52;104283;1289;60587;-81
2024/03/05 07:28:11;;;;;;;;;;;;;;;19.67;35.95;100458.45;104220;1294;62082;-81
2024/03/05 07:30:37;;;;;;;;;;;;;;;19.66;35.96;100463.17;104137;1289;62175;-81
2024/03/05 07:33:03;;;;;;;;;;;;;;;19.65;36.07;100467.87;104439;1289;62204;-81
2024/03/05 07:35:29;;;;;;;;;;;;;;;19.65;36.13;100467.70;104332;1289;62691;-81
2024/03/05 07:37:55;;;;;;;;;;;;;;;19.65;36.01;100468.05;104259;1288;76205;-82
2024/03/05 07:40:22;;;;;;;;;;;;;;;19.67;36.13;100467.18;104225;1292;62198;-79
2024/03/05 07:42:54;;;;;;;;;;;;;;;19.70;36.20;100469.48;104072;1289;62244;-81
2024/03/05 07:45:20;;;;;;;;;;;;;;;19.72;36.25;100466.62;104240;1291;72270;-80
2024/03/05 07:47:45;;;;;;;;;;;;;;;19.74;36.28;100460.38;104279;1289;62223;-81
2024/03/05 07:50:14;;;;;;;;;;;;;;;19.77;36.13;100461.27;104176;1290;62207;-81
2024/03/05 07:52:45;;;;;;;;;;;;;;;19.79;36.17;100459.74;104303;1292;61950;-81
2024/03/05 07:55:13;;;;;;;;;;;;;;;19.83;36.23;100458.23;104570;1291;72452;-80
2024/03/05 07:57:38;;;;;;;;;;;;;;;19.85;36.23;100456.99;104187;1291;76080;-81
2024/03/05 08:00:08;;;;;;;;;;;;;;;19.87;36.43;100458.63;104413;1289;62173;-81
2024/03/05 08:02:35;;;;;;;;;;;;;;;19.90;36.53;100459.87;104405;1290;62274;-79
2024/03/05 08:05:01;;;;;;;;;;;;;;;19.92;36.40;100465.58;104237;1288;72206;-80
2024/03/05 08:07:26;;;;;;;;;;;;;;;19.96;36.59;100464.30;104137;1289;62070;-78
2024/03/05 08:09:51;;;;;;;;;;;;;;;19.98;36.59;100462.71;104357;1288;62219;-77
2024/03/05 08:12:17;;;;;;;;;;;;;;;20.00;36.70;100467.75;104018;1291;62927;-80
2024/03/05 08:14:43;;;;;;;;;;;;;;;20.02;36.64;100464.18;104075;1289;62297;-81
2024/03/05 08:17:08;;;;;;;;;;;;;;;20.04;36.68;100468.52;104363;1289;72610;-80
2024/03/05 08:19:35;;;;;;;;;;;;;;;20.05;36.65;100462.69;103867;1290;62253;-81
2024/03/05 08:22:00;;;;;;;;;;;;;;;20.08;36.63;100462.36;103801;1289;62319;-78
2024/03/05 08:24:26;;;;;;;;;;;;;;;20.09;36.72;100464.94;103972;1290;62251;-79
2024/03/05 08:26:51;;;;;;;;;;;;;;;20.10;36.63;100465.58;104556;1289;62143;-79
2024/03/05 08:29:18;;;;;;;;;;;;;;;20.11;36.77;100464.80;104562;1289;62202;-79
2024/03/05 08:31:43;;;;;;;;;;;;;;;20.13;36.52;100465.77;104350;1289;75279;-79
2024/03/05 08:34:09;;;;;;;;;;;;;;;20.14;36.65;100468.88;103815;1290;62183;-80
2024/03/05 08:36:36;;;;;;;;;;;;;;;20.15;36.58;100471.84;104267;1289;62077;-78
2024/03/05 08:39:08;;;;;;;;;;;;;;;20.15;36.72;100470.02;104014;1288;62457;-80
2024/03/05 08:41:34;;;;;;;;;;;;;;;20.16;36.75;100472.97;104274;1296;75335;-80
2024/03/05 08:44:00;;;;;;;;;;;;;;;20.18;36.72;100470.21;104283;1289;62207;-80
2024/03/05 08:46:25;;;;;;;;;;;;;;;20.19;36.72;100468.69;104390;1290;62520;-79
2024/03/05 08:48:52;;;;;;;;;;;;;;;20.20;36.76;100473.04;104539;1291;61350;-79
2024/03/05 08:51:18;;;;;;;;;;;;;;;20.22;36.94;100474.52;104723;1290;62069;-78
2024/03/05 08:53:44;;;;;;;;;;;;;;;20.23;36.85;100476.06;104428;1289;62174;-79
2024/03/05 08:56:09;;;;;;;;;;;;;;;20.23;36.89;100476.79;104768;1289;62131;-80
2024/03/05 08:58:35;;;;;;;;;;;;;;;20.25;37.01;100482.18;104441;1289;61385;-79
2024/03/05 09:01:00;;;;;;;;;;;;;;;20.26;37.16;100481.91;104907;1290;62196;-79
2024/03/05 09:03:26;;;;;;;;;;;;;;;20.28;37.23;100481.27;104255;1290;62125;-79
2024/03/05 09:05:51;;;;;;;;;;;;;;;20.30;37.44;100479.71;103864;1290;62181;-78
2024/03/05 09:08:17;;;;;;;;;;;;;;;20.31;37.29;100483.38;104611;1294;62193;-79
2024/03/05 09:10:44;;;;;;;;;;;;;;;20.32;37.33;100481.70;104727;1288;62174;-79
2024/03/05 09:13:10;;;;;;;;;;;;;;;20.33;37.45;100480.37;104708;1289;72516;-79
2024/03/05 09:15:35;;;;;;;;;;;;;;;20.34;37.36;100485.30;104602;1290;62207;-79
2024/03/05 09:18:01;;;;;;;;;;;;;;;20.35;37.42;100488.45;104661;1289;59483;-80
2024/03/05 09:20:27;;;;;;;;;;;;;;;20.35;37.45;100483.21;104543;1289;60350;-79
2024/03/05 09:22:53;;;;;;;;;;;;;;;20.36;37.51;100484.61;104504;1292;62110;-79
2024/03/05 09:25:18;;;;;;;;;;;;;;;20.36;37.51;100484.39;104532;1289;62137;-79
2024/03/05 09:27:46;;;;;;;;;;;;;;;20.37;37.43;100482.20;104527;1291;62469;-79
2024/03/05 09:30:14;;;;;;;;;;;;;;;20.37;37.41;100486.10;104514;1291;62158;-80
2024/03/05 09:32:40;;;;;;;;;;;;;;;20.37;37.60;100490.23;104511;1290;62162;-80
2024/03/05 09:35:08;;;;;;;;;;;;;;;20.37;37.51;100491.52;105962;1290;60187;-80
2024/03/05 09:37:35;;;;;;;;;;;;;;;20.37;37.58;100490.74;106169;1290;75307;-80
2024/03/05 09:40:01;;;;;;;;;;;;;;;20.39;37.53;100488.89;105406;1290;60252;-80
2024/03/05 09:42:27;;;;;;;;;;;;;;;20.39;37.63;100488.27;104701;1290;62080;-80
2024/03/05 09:44:53;;;;;;;;;;;;;;;20.41;37.87;100495.63;105825;1291;60141;-79
2024/03/05 09:47:19;;;;;;;;;;;;;;;20.42;37.89;100495.58;106015;1290;59855;-81
2024/03/05 09:49:44;;;;;;;;;;;;;;;20.43;38.07;100499.64;106055;1289;59688;-80
2024/03/05 09:52:10;;;;;;;;;;;;;;;20.38;37.76;100501.27;106004;1290;60108;-85
2024/03/05 09:54:36;;;;;;;;;;;;;;;20.10;37.83;100501.31;105983;1290;60378;-79
2024/03/05 09:57:03;;;;;;;;;;;;;;;19.92;38.36;100500.98;105808;1290;72543;-80
2024/03/05 09:59:28;;;;;;;;;;;;;;;19.75;38.59;100498.17;105008;1291;62021;-80
2024/03/05 10:01:54;;;;;;;;;;;;;;;19.74;38.83;100505.09;104871;1289;62089;-80
2024/03/05 10:04:19;;;;;;;;;;;;;;;19.71;38.95;100502.21;105112;1289;62244;-80
2024/03/05 10:06:46;;;;;;;;;;;;;;;19.46;38.84;100502.21;105181;1289;61251;-81
2024/03/05 10:09:12;;;;;;;;;;;;;;;19.32;39.12;100502.77;104935;1291;72514;-81
2024/03/05 10:11:38;;;;;;;;;;;;;;;19.30;39.25;100496.66;105048;1289;75276;-82
2024/03/05 10:14:07;;;;;;;;;;;;;;;19.19;39.17;100494.73;105257;1291;62089;-80
2024/03/05 10:16:34;;;;;;;;;;;;;;;19.12;38.98;100493.45;104786;1291;61994;-81
2024/03/05 10:19:03;;;;;;;;;;;;;;;18.88;38.86;100488.63;104906;1289;62058;-80
2024/03/05 10:21:31;;;;;;;;;;;;;;;18.83;38.96;100486.40;104728;1291;76563;-83
2024/03/05 10:23:56;;;;;;;;;;;;;;;18.92;39.07;100483.88;104856;1289;60771;-80
2024/03/05 10:26:24;;;;;;;;;;;;;;;19.01;39.11;100483.65;105156;1290;62119;-80
2024/03/05 10:28:51;;;;;;;;;;;;;;;19.11;39.11;100485.50;105204;1289;72513;-81
2024/03/05 10:31:20;;;;;;;;;;;;;;;19.21;38.96;100477.31;105091;1289;60988;-81
2024/03/05 10:33:46;;;;;;;;;;;;;;;19.29;39.08;100480.86;104991;1289;62104;-82
2024/03/05 10:36:12;;;;;;;;;;;;;;;19.31;38.84;100477.91;104801;1291;60775;-80
2024/03/05 10:38:38;;;;;;;;;;;;;;;19.37;39.09;100473.02;105017;1288;60541;-81
2024/03/05 10:41:07;;;;;;;;;;;;;;;19.47;39.10;100463.61;104820;1293;62117;-80
2024/03/05 10:43:32;;;;;;;;;;;;;;;19.56;38.91;100459.17;104830;1291;63242;-81
2024/03/05 10:45:58;;;;;;;;;;;;;;;19.64;38.99;100460.05;105066;1291;62098;-81
2024/03/05 10:48:23;;;;;;;;;;;;;;;19.66;39.11;100456.33;105097;1290;62201;-80
2024/03/05 10:50:50;;;;;;;;;;;;;;;19.61;38.88;100453.98;105072;1293;62227;-81
2024/03/05 10:53:16;;;;;;;;;;;;;;;19.47;38.78;100450.20;104816;1290;62237;-80
2024/03/05 10:55:43;;;;;;;;;;;;;;;19.38;38.89;100446.51;104966;1289;60103;-80
2024/03/05 11:00:56;;;;;;;;;;;;;;;19.19;38.52;100450.13;104844;1290;75184;-82
2024/03/05 11:03:24;;;;;;;;;;;;;;;18.94;38.41;100449.36;105169;1289;62063;-80
2024/03/05 11:05:56;;;;;;;;;;;;;;;18.78;38.76;100444.31;104981;1292;60579;-80
2024/03/05 11:08:25;;;;;;;;;;;;;;;18.70;38.59;100442.86;105334;1289;72417;-81
2024/03/05 11:10:55;;;;;;;;;;;;;;;18.61;38.65;100439.91;104963;1289;75330;-80
2024/03/05 11:13:20;;;;;;;;;;;;;;;18.55;38.56;100440.70;104966;1291;62013;-80
2024/03/05 11:15:47;;;;;;;;;;;;;;;18.43;38.61;100447.35;105261;1289;62228;-80
2024/03/05 11:18:31;;;;;;;;;;;;;;;18.38;38.67;100445.89;105052;1291;72621;-81
2024/03/05 11:20:56;;;;;;;;;;;;;;;18.46;38.89;100449.30;104984;1289;76075;-81
2024/03/05 11:23:26;;;;;;;;;;;;;;;18.50;38.76;100441.89;104705;1290;62197;-81
2024/03/05 11:25:52;;;;;;;;;;;;;;;18.63;38.87;100443.52;104834;1292;60227;-82
2024/03/05 11:28:18;;;;;;;;;;;;;;;18.75;38.71;100440.23;105148;1289;60019;-80
2024/03/05 11:30:43;;;;;;;;;;;;;;;18.79;38.63;100433.73;105155;1289;62009;-79
2024/03/05 11:33:10;;;;;;;;;;;;;;;18.69;38.37;100430.66;105041;1289;62105;-82
2024/03/05 11:35:43;;;;;;;;;;;;;;;18.57;38.45;100426.41;105099;1290;62096;-82
2024/03/05 11:38:13;;;;;;;;;;;;;;;18.69;38.75;100426.73;104972;1289;72547;-81
2024/03/05 11:40:39;;;;;;;;;;;;;;;18.72;38.63;100424.73;105192;1290;75430;-81
2024/03/05 11:43:05;;;;;;;;;;;;;;;18.75;38.47;100426.88;105049;1293;61154;-81
2024/03/05 11:45:46;;;;;;;;;;;;;;;18.68;38.46;100429.88;105041;1291;62065;-80
2024/03/05 11:48:13;;;;;;;;;;;;;;;18.74;38.66;100422.86;105074;1291;72630;-80
2024/03/05 11:50:39;;;;;;;;;;;;;;;18.85;38.68;100420.69;105213;1291;62057;-80
2024/03/05 11:53:06;;;;;;;;;;;;;;;18.93;38.76;100419.30;105054;1290;60289;-80
2024/03/05 11:55:32;;;;;;;;;;;;;;;18.95;38.85;100421.27;104913;1288;63275;-81
2024/03/05 11:57:57;;;;;;;;;;;;;;;19.03;39.07;100416.61;104911;1291;60211;-82
2024/03/05 12:00:26;;;;;;;;;;;;;;;19.14;38.97;100405.02;104921;1291;62109;-80
2024/03/05 12:02:57;;;;;;;;;;;;;;;19.24;38.90;100407.16;105134;1290;62202;-82
2024/03/05 12:05:23;;;;;;;;;;;;;;;18.99;38.49;100408.84;105308;1290;61110;-81
2024/03/05 12:08:06;;;;;;;;;;;;;;;18.73;38.61;100411.12;105432;1290;60751;-82
2024/03/05 12:10:34;;;;;;;;;;;;;;;18.63;38.82;100401.48;105895;1290;75200;-81
2024/03/05 12:12:59;;;;;;;;;;;;;;;18.67;38.95;100401.57;105782;1291;62006;-82
2024/03/05 12:15:27;;;;;;;;;;;;;;;18.62;38.80;100401.90;105914;1291;59731;-82
2024/03/05 12:17:53;;;;;;;;;;;;;;;18.63;38.81;100400.41;105914;1290;73592;-81
2024/03/05 12:20:18;;;;;;;;;;;;;;;18.70;38.78;100398.88;105866;1291;61468;-80
2024/03/05 12:22:51;;;;;;;;;;;;;;;18.78;38.70;100396.39;105854;1291;61570;-81
2024/03/05 12:25:17;;;;;;;;;;;;;;;18.86;38.65;100393.16;105954;1289;60297;-82
2024/03/05 12:27:49;;;;;;;;;;;;;;;18.97;38.81;100393.71;105842;1291;71785;-81
2024/03/05 12:30:17;;;;;;;;;;;;;;;19.08;38.43;100390.04;105938;1289;76697;-81
2024/03/05 12:32:44;;;;;;;;;;;;;;;19.12;38.34;100391.21;105827;1291;60667;-79
2024/03/05 12:35:18;;;;;;;;;;;;;;;19.21;38.45;100387.06;105980;1288;59977;-81